createdAt,value
2018-10-01T00:01:31.309Z,99.90
2018-10-01T00:04:00.728Z,99.90
2018-10-01T00:06:30.145Z,99.90
2018-10-01T00:08:59.267Z,99.90
2018-10-01T00:11:28.474Z,99.90
2018-10-01T00:13:58.395Z,99.90
2018-10-01T00:16:27.453Z,99.90
2018-10-01T00:18:56.717Z,99.90
2018-10-01T00:21:31.272Z,99.90
2018-10-01T00:24:00.735Z,99.90
2018-10-01T00:26:30.413Z,99.90
2018-10-01T00:28:59.606Z,99.90
2018-10-01T00:31:28.782Z,99.90
2018-10-01T00:33:57.996Z,99.90
2018-10-01T00:36:27.781Z,99.90
2018-10-01T00:38:57.052Z,99.90
2018-10-01T00:41:26.332Z,99.90
2018-10-01T00:43:55.751Z,99.90
2018-10-01T00:46:24.785Z,99.90
2018-10-01T00:48:53.996Z,99.90
2018-10-01T00:51:23.143Z,99.90
2018-10-01T00:53:52.432Z,99.90
2018-10-01T00:56:21.795Z,99.90
2018-10-01T00:58:50.836Z,99.90
2018-10-01T01:01:20.118Z,99.90
2018-10-01T01:03:49.461Z,99.90
2018-10-01T01:06:18.833Z,99.90
2018-10-01T01:08:48.053Z,99.90
2018-10-01T01:11:17.326Z,99.90
2018-10-01T01:13:47.179Z,99.90
2018-10-01T01:16:17.335Z,99.90
2018-10-01T01:18:47.092Z,99.90
2018-10-01T01:21:16.433Z,99.90
2018-10-01T01:23:45.877Z,99.90
2018-10-01T01:26:15.857Z,99.90
2018-10-01T01:28:45.213Z,99.90
2018-10-01T01:31:14.340Z,99.90
2018-10-01T01:33:43.496Z,99.90
2018-10-01T01:36:12.755Z,99.90
2018-10-01T01:38:41.888Z,99.90
2018-10-01T01:41:11.376Z,99.90
2018-10-01T01:43:41.488Z,99.90
2018-10-01T01:46:10.783Z,99.90
2018-10-01T01:48:40.215Z,99.90
2018-10-01T01:51:09.994Z,99.90
2018-10-01T01:53:39.459Z,99.90
2018-10-01T01:56:08.683Z,99.90
2018-10-01T01:58:37.982Z,99.90
2018-10-01T02:01:07.421Z,99.90
2018-10-01T02:03:36.664Z,99.90
2018-10-01T02:06:06.092Z,99.90
2018-10-01T02:08:35.476Z,99.90
2018-10-01T02:11:05.055Z,99.90
2018-10-01T02:13:34.332Z,99.90
2018-10-01T02:16:03.921Z,99.90
2018-10-01T02:18:33.197Z,99.90
2018-10-01T02:21:02.240Z,99.90
2018-10-01T02:23:31.408Z,99.90
2018-10-01T02:26:00.556Z,99.90
2018-10-01T02:28:30.048Z,99.90
2018-10-01T02:30:59.181Z,99.90
2018-10-01T02:33:28.352Z,99.90
2018-10-01T02:35:57.780Z,99.90
2018-10-01T02:38:27.025Z,99.90
2018-10-01T02:40:57.247Z,99.90
2018-10-01T02:43:26.704Z,99.90
2018-10-01T02:45:56.027Z,99.90
2018-10-01T02:48:25.692Z,99.90
2018-10-01T02:50:55.152Z,99.90
2018-10-01T02:54:33.396Z,99.90
2018-10-01T02:57:03.048Z,99.90
2018-10-01T02:59:32.256Z,99.90
2018-10-01T03:02:01.617Z,99.90
2018-10-01T03:04:31.046Z,99.90
2018-10-01T03:07:00.156Z,99.90
2018-10-01T03:09:29.387Z,99.90
2018-10-01T03:11:58.825Z,99.90
2018-10-01T03:14:28.083Z,99.90
2018-10-01T03:16:57.441Z,99.90
2018-10-01T03:19:27.052Z,99.90
2018-10-01T03:21:56.087Z,99.90
2018-10-01T03:24:25.543Z,99.90
2018-10-01T03:26:54.687Z,99.90
2018-10-01T03:29:24.024Z,99.90
2018-10-01T03:31:53.236Z,99.90
2018-10-01T03:34:22.816Z,99.90
2018-10-01T03:36:52.532Z,99.90
2018-10-01T03:39:21.556Z,99.90
2018-10-01T03:41:51.096Z,99.90
2018-10-01T03:44:20.361Z,99.90
2018-10-01T03:46:49.574Z,99.90
2018-10-01T03:49:19.288Z,99.90
2018-10-01T03:51:48.914Z,99.90
2018-10-01T03:54:18.306Z,99.90
2018-10-01T03:56:47.550Z,99.90
2018-10-01T03:59:16.666Z,99.90
2018-10-01T04:01:45.873Z,99.90
2018-10-01T04:04:15.305Z,99.90
2018-10-01T04:06:44.544Z,99.90
2018-10-01T04:09:13.992Z,99.90
2018-10-01T04:11:43.266Z,99.90
2018-10-01T04:14:12.512Z,99.90
2018-10-01T04:16:41.671Z,99.90
2018-10-01T04:19:11.075Z,99.90
2018-10-01T04:21:40.256Z,99.90
2018-10-01T04:24:09.768Z,99.90
2018-10-01T04:26:39.163Z,99.90
2018-10-01T04:29:08.667Z,99.90
2018-10-01T04:31:38.224Z,99.90
2018-10-01T04:34:07.627Z,99.90
2018-10-01T04:36:37.112Z,99.90
2018-10-01T04:39:09.569Z,99.90
2018-10-01T04:41:38.820Z,99.90
2018-10-01T04:44:08.419Z,99.90
2018-10-01T04:46:38.990Z,99.90
2018-10-01T04:49:09.349Z,99.90
2018-10-01T04:51:39.565Z,99.90
2018-10-01T04:54:09.052Z,99.90
2018-10-01T04:56:38.624Z,99.90
2018-10-01T04:59:08.343Z,99.90
2018-10-01T05:01:37.443Z,99.90
2018-10-01T05:04:06.908Z,99.90
2018-10-01T05:06:35.923Z,99.90
2018-10-01T05:09:06.400Z,99.90
2018-10-01T05:11:35.625Z,99.90
2018-10-01T05:14:05.006Z,99.90
2018-10-01T05:16:34.547Z,99.90
2018-10-01T05:19:04.285Z,99.90
2018-10-01T05:21:33.744Z,99.90
2018-10-01T05:24:03.388Z,99.90
2018-10-01T05:26:33.718Z,99.90
2018-10-01T05:29:03.439Z,99.90
2018-10-01T05:31:32.912Z,99.90
2018-10-01T05:34:02.378Z,99.90
2018-10-01T05:36:31.715Z,99.90
2018-10-01T05:39:01.312Z,99.90
2018-10-01T05:41:30.696Z,99.90
2018-10-01T05:44:00.027Z,99.90
2018-10-01T05:46:29.363Z,99.90
2018-10-01T05:48:58.746Z,99.90
2018-10-01T05:51:28.131Z,99.90
2018-10-01T05:53:57.263Z,99.90
2018-10-01T05:56:26.519Z,99.90
2018-10-01T05:58:55.759Z,99.90
2018-10-01T06:01:25.013Z,99.90
2018-10-01T06:03:54.471Z,99.90
2018-10-01T06:06:23.523Z,99.90
2018-10-01T06:08:52.464Z,99.90
2018-10-01T06:11:21.582Z,99.90
2018-10-01T06:13:50.740Z,99.90
2018-10-01T06:16:20.139Z,99.90
2018-10-01T06:18:49.848Z,99.90
2018-10-01T06:21:19.152Z,99.90
2018-10-01T06:23:48.609Z,99.90
2018-10-01T06:26:17.927Z,99.90
2018-10-01T06:28:47.485Z,99.90
2018-10-01T06:31:16.870Z,99.90
2018-10-01T06:33:46.343Z,99.90
2018-10-01T06:36:16.151Z,99.90
2018-10-01T06:38:45.307Z,99.90
2018-10-01T06:41:14.768Z,99.90
2018-10-01T06:43:44.103Z,99.90
2018-10-01T06:46:13.435Z,99.90
2018-10-01T06:48:42.694Z,99.90
2018-10-01T06:51:12.153Z,99.90
2018-10-01T06:53:42.331Z,99.90
2018-10-01T06:56:11.560Z,99.90
2018-10-01T06:58:41.185Z,99.90
2018-10-01T07:01:10.882Z,99.90
2018-10-01T07:03:40.046Z,99.90
2018-10-01T07:06:09.146Z,99.90
2018-10-01T07:08:38.664Z,99.90
2018-10-01T07:11:07.970Z,99.90
2018-10-01T07:13:37.181Z,99.90
2018-10-01T07:16:06.800Z,99.90
2018-10-01T07:18:36.193Z,99.90
2018-10-01T07:21:05.841Z,99.90
2018-10-01T07:23:35.606Z,99.90
2018-10-01T07:26:05.049Z,99.90
2018-10-01T07:28:34.076Z,99.90
2018-10-01T07:31:03.686Z,99.90
2018-10-01T07:33:33.270Z,99.90
2018-10-01T07:36:02.436Z,99.90
2018-10-01T07:38:32.136Z,99.90
2018-10-01T07:41:01.280Z,99.90
2018-10-01T07:43:30.731Z,99.90
2018-10-01T07:46:00.385Z,99.90
2018-10-01T07:48:30.167Z,99.90
2018-10-01T07:50:59.909Z,99.90
2018-10-01T07:53:29.810Z,99.90
2018-10-01T07:55:59.214Z,99.90
2018-10-01T07:58:28.624Z,99.90
2018-10-01T08:00:58.160Z,99.90
2018-10-01T08:03:27.595Z,99.90
2018-10-01T08:05:57.070Z,99.90
2018-10-01T08:08:26.840Z,99.90
2018-10-01T08:10:56.180Z,99.90
2018-10-01T08:13:25.551Z,99.90
2018-10-01T08:15:55.037Z,99.90
2018-10-01T08:18:24.265Z,99.90
2018-10-01T08:20:53.604Z,99.90
2018-10-01T08:23:23.195Z,99.90
2018-10-01T08:25:52.323Z,99.90
2018-10-01T08:28:21.976Z,99.90
2018-10-01T08:30:51.224Z,99.90
2018-10-01T08:33:20.513Z,99.90
2018-10-01T08:35:49.803Z,99.90
2018-10-01T08:38:19.658Z,99.90
2018-10-01T08:40:49.053Z,99.90
2018-10-01T08:43:18.395Z,99.90
2018-10-01T08:45:48.048Z,99.90
2018-10-01T08:48:18.440Z,99.90
2018-10-01T08:50:52.945Z,99.90
2018-10-01T08:53:30.884Z,99.90
2018-10-01T08:56:00.126Z,99.90
2018-10-01T08:58:29.383Z,99.90
2018-10-01T09:00:58.815Z,99.90
2018-10-01T09:03:28.304Z,99.90
2018-10-01T09:05:57.781Z,99.90
2018-10-01T09:08:27.395Z,99.90
2018-10-01T09:10:56.872Z,99.90
2018-10-01T09:13:26.249Z,99.90
2018-10-01T09:15:55.437Z,96.60
2018-10-01T09:18:24.776Z,99.90
2018-10-01T09:20:54.179Z,99.90
2018-10-01T09:23:23.508Z,98.80
2018-10-01T09:25:53.137Z,97.60
2018-10-01T09:28:23.028Z,98.80
2018-10-01T09:30:52.402Z,96.70
2018-10-01T09:33:21.882Z,96.00
2018-10-01T09:35:51.297Z,95.20
2018-10-01T09:38:20.610Z,95.20
2018-10-01T09:40:50.364Z,95.20
2018-10-01T09:43:19.883Z,93.70
2018-10-01T09:45:49.068Z,93.90
2018-10-01T09:48:18.189Z,95.70
2018-10-01T09:50:47.875Z,93.40
2018-10-01T09:53:16.807Z,91.70
2018-10-01T09:55:46.111Z,92.70
2018-10-01T09:58:15.423Z,92.40
2018-10-01T10:00:50.241Z,90.60
2018-10-01T10:03:19.269Z,92.10
2018-10-01T10:05:48.837Z,90.40
2018-10-01T10:08:18.130Z,89.70
2018-10-01T10:10:47.167Z,91.20
2018-10-01T10:13:16.658Z,90.20
2018-10-01T10:15:46.301Z,92.50
2018-10-01T10:18:15.691Z,90.20
2018-10-01T10:20:46.057Z,85.90
2018-10-01T10:23:15.581Z,86.20
2018-10-01T10:25:44.839Z,90.70
2018-10-01T10:28:14.377Z,84.30
2018-10-01T10:30:43.599Z,82.90
2018-10-01T10:33:12.844Z,83.50
2018-10-01T10:35:42.207Z,81.20
2018-10-01T10:38:11.429Z,80.00
2018-10-01T10:40:40.938Z,83.50
2018-10-01T10:43:10.561Z,82.60
2018-10-01T10:45:40.355Z,76.10
2018-10-01T10:48:09.441Z,76.60
2018-10-01T10:50:38.974Z,73.80
2018-10-01T10:53:08.223Z,71.40
2018-10-01T10:55:37.557Z,76.20
2018-10-01T10:58:06.851Z,77.60
2018-10-01T11:00:36.108Z,72.70
2018-10-01T11:03:05.856Z,78.50
2018-10-01T11:05:35.072Z,72.10
2018-10-01T11:08:04.770Z,66.50
2018-10-01T11:10:34.167Z,71.10
2018-10-01T11:13:03.916Z,67.20
2018-10-01T11:15:33.452Z,66.00
2018-10-01T11:18:03.026Z,68.20
2018-10-01T11:20:32.160Z,71.80
2018-10-01T11:23:01.432Z,69.20
2018-10-01T11:25:30.895Z,68.20
2018-10-01T11:28:00.108Z,72.40
2018-10-01T11:30:29.479Z,79.10
2018-10-01T11:32:58.998Z,82.70
2018-10-01T11:35:28.499Z,81.10
2018-10-01T11:37:57.619Z,83.10
2018-10-01T11:40:27.050Z,86.40
2018-10-01T11:42:57.285Z,91.40
2018-10-01T11:45:26.789Z,92.10
2018-10-01T11:47:56.468Z,93.50
2018-10-01T11:50:25.681Z,93.40
2018-10-01T11:52:54.971Z,93.90
2018-10-01T11:55:25.267Z,97.10
2018-10-01T11:57:54.724Z,98.80
2018-10-01T12:00:24.407Z,99.90
2018-10-01T12:02:54.332Z,98.20
2018-10-01T12:05:23.458Z,99.90
2018-10-01T12:07:52.856Z,99.90
2018-10-01T12:10:22.058Z,99.90
2018-10-01T12:12:51.287Z,99.90
2018-10-01T12:15:20.760Z,99.90
2018-10-01T12:17:49.931Z,99.90
2018-10-01T12:20:19.718Z,99.90
2018-10-01T12:22:49.147Z,99.90
2018-10-01T12:25:18.947Z,99.90
2018-10-01T12:27:48.305Z,99.90
2018-10-01T12:30:17.809Z,99.90
2018-10-01T12:32:47.056Z,99.90
2018-10-01T12:35:16.554Z,99.90
2018-10-01T12:37:46.083Z,99.90
2018-10-01T12:40:15.360Z,99.90
2018-10-01T12:42:44.707Z,99.90
2018-10-01T12:45:13.962Z,99.90
2018-10-01T12:47:43.581Z,99.90
2018-10-01T12:50:13.236Z,99.90
2018-10-01T12:52:43.329Z,99.90
2018-10-01T12:55:12.789Z,99.90
2018-10-01T12:57:42.339Z,99.90
2018-10-01T13:00:11.635Z,99.90
2018-10-01T13:02:41.115Z,99.90
2018-10-01T13:05:10.829Z,99.90
2018-10-01T13:07:40.005Z,99.90
2018-10-01T13:10:09.609Z,99.90
2018-10-01T13:12:39.373Z,99.90
2018-10-01T13:15:08.811Z,99.90
2018-10-01T13:17:38.198Z,99.90
2018-10-01T13:20:07.829Z,99.90
2018-10-01T13:22:37.459Z,99.90
2018-10-01T13:25:07.041Z,99.90
2018-10-01T13:27:36.150Z,99.90
2018-10-01T13:30:05.948Z,99.90
2018-10-01T13:32:35.361Z,99.90
2018-10-01T13:35:04.850Z,99.90
2018-10-01T13:37:34.126Z,99.90
2018-10-01T13:40:03.508Z,99.90
2018-10-01T13:42:33.008Z,99.90
2018-10-01T13:45:02.406Z,99.90
2018-10-01T13:47:31.911Z,99.90
2018-10-01T13:50:01.590Z,99.90
2018-10-01T13:52:30.752Z,99.90
2018-10-01T13:55:00.086Z,99.90
2018-10-01T13:57:29.592Z,99.90
2018-10-01T13:59:59.198Z,99.90
2018-10-01T14:02:28.576Z,99.90
2018-10-01T14:04:57.901Z,99.90
2018-10-01T14:07:27.822Z,99.90
2018-10-01T14:09:58.684Z,99.90
2018-10-01T14:12:28.031Z,99.90
2018-10-01T14:14:57.376Z,99.90
2018-10-01T14:17:26.619Z,99.90
2018-10-01T14:19:56.198Z,99.90
2018-10-01T14:22:25.660Z,99.90
2018-10-01T14:24:55.067Z,99.90
2018-10-01T14:27:24.483Z,99.90
2018-10-01T14:29:53.896Z,99.90
2018-10-01T14:32:23.181Z,99.90
2018-10-01T14:34:52.683Z,99.90
2018-10-01T14:37:22.209Z,99.90
2018-10-01T14:39:51.360Z,99.90
2018-10-01T14:42:20.732Z,99.90
2018-10-01T14:44:50.549Z,99.90
2018-10-01T14:47:20.111Z,99.90
2018-10-01T14:49:49.721Z,99.90
2018-10-01T14:52:19.448Z,99.90
2018-10-01T14:54:49.058Z,99.90
2018-10-01T14:57:18.393Z,99.90
2018-10-01T14:59:47.728Z,99.90
2018-10-01T15:02:17.156Z,99.90
2018-10-01T15:04:46.663Z,99.90
2018-10-01T15:07:16.005Z,99.90
2018-10-01T15:09:45.443Z,99.90
2018-10-01T15:12:15.032Z,99.90
2018-10-01T15:14:44.210Z,99.90
2018-10-01T15:17:13.756Z,99.90
2018-10-01T15:19:43.091Z,99.90
2018-10-01T15:22:12.525Z,99.90
2018-10-01T15:24:42.037Z,99.90
2018-10-01T15:27:12.783Z,99.90
2018-10-01T15:29:42.077Z,99.90
2018-10-01T15:32:11.689Z,99.90
2018-10-01T15:34:41.180Z,99.90
2018-10-01T15:37:10.452Z,99.90
2018-10-01T15:39:39.664Z,99.90
2018-10-01T15:42:09.286Z,99.90
2018-10-01T15:44:38.527Z,99.90
2018-10-01T15:47:07.921Z,99.90
2018-10-01T15:49:37.083Z,99.90
2018-10-01T15:52:07.397Z,99.90
2018-10-01T15:54:36.636Z,99.90
2018-10-01T15:57:05.991Z,99.90
2018-10-01T15:59:35.585Z,99.90
2018-10-01T16:02:05.299Z,99.90
2018-10-01T16:04:34.639Z,99.90
2018-10-01T16:07:04.114Z,99.90
2018-10-01T16:09:33.792Z,99.90
2018-10-01T16:12:03.178Z,99.90
2018-10-01T16:14:32.511Z,99.90
2018-10-01T16:17:01.813Z,99.90
2018-10-01T16:19:31.887Z,99.90
2018-10-01T16:22:02.753Z,99.90
2018-10-01T16:24:32.068Z,99.90
2018-10-01T16:27:01.638Z,99.90
2018-10-01T16:29:30.993Z,99.90
2018-10-01T16:32:00.386Z,99.90
2018-10-01T16:34:29.989Z,99.90
2018-10-01T16:36:59.506Z,99.90
2018-10-01T16:39:29.220Z,99.90
2018-10-01T16:41:58.267Z,99.90
2018-10-01T16:44:28.114Z,99.90
2018-10-01T16:46:57.699Z,99.90
2018-10-01T16:49:29.243Z,99.90
2018-10-01T16:51:59.211Z,99.90
2018-10-01T16:54:28.754Z,99.90
2018-10-01T16:56:58.232Z,99.90
2018-10-01T16:59:27.956Z,99.90
2018-10-01T17:01:59.405Z,99.90
2018-10-01T17:04:28.431Z,99.90
2018-10-01T17:06:58.010Z,99.90
2018-10-01T17:09:27.438Z,99.90
2018-10-01T17:11:56.783Z,99.90
2018-10-01T17:14:26.245Z,99.90
2018-10-01T17:16:55.891Z,99.90
2018-10-01T17:19:25.694Z,99.90
2018-10-01T17:21:54.975Z,99.90
2018-10-01T17:24:24.303Z,99.90
2018-10-01T17:26:53.917Z,99.90
2018-10-01T17:29:23.295Z,99.90
2018-10-01T17:31:53.143Z,99.90
2018-10-01T17:34:22.562Z,99.90
2018-10-01T17:36:52.018Z,99.90
2018-10-01T17:39:21.353Z,99.90
2018-10-01T17:41:50.848Z,99.90
2018-10-01T17:44:20.488Z,99.90
2018-10-01T17:46:50.212Z,99.90
2018-10-01T17:49:19.586Z,99.90
2018-10-01T17:51:48.737Z,99.90
2018-10-01T17:54:19.486Z,99.90
2018-10-01T17:56:49.350Z,99.90
2018-10-01T17:59:19.173Z,99.90
2018-10-01T18:01:49.035Z,99.90
2018-10-01T18:04:18.521Z,99.90
2018-10-01T18:06:47.944Z,99.90
2018-10-01T18:09:17.116Z,99.90
2018-10-01T18:11:46.573Z,99.90
2018-10-01T18:14:15.999Z,99.90
2018-10-01T18:16:45.845Z,99.90
2018-10-01T18:19:15.232Z,99.90
2018-10-01T18:21:44.677Z,99.90
2018-10-01T18:24:14.038Z,99.90
2018-10-01T18:26:43.475Z,99.90
2018-10-01T18:29:12.591Z,99.90
2018-10-01T18:31:41.925Z,99.90
2018-10-01T18:34:11.726Z,99.90
2018-10-01T18:36:40.994Z,99.90
2018-10-01T18:39:18.181Z,99.90
2018-10-01T18:41:48.247Z,99.90
2018-10-01T18:44:17.509Z,99.90
2018-10-01T18:46:47.825Z,99.90
2018-10-01T18:49:17.897Z,99.90
2018-10-01T18:51:47.252Z,99.90
2018-10-01T18:54:16.582Z,99.90
2018-10-01T18:56:45.970Z,99.90
2018-10-01T18:59:15.305Z,99.90
2018-10-01T19:01:45.318Z,99.90
2018-10-01T19:04:14.690Z,99.90
2018-10-01T19:06:44.155Z,99.90
2018-10-01T19:09:13.879Z,99.90
2018-10-01T19:11:43.237Z,99.90
2018-10-01T19:14:13.386Z,99.90
2018-10-01T19:16:43.078Z,99.90
2018-10-01T19:19:12.341Z,99.90
2018-10-01T19:21:41.604Z,99.90
2018-10-01T19:24:11.103Z,99.90
2018-10-01T19:26:40.947Z,99.90
2018-10-01T19:29:10.412Z,99.90
2018-10-01T19:31:41.527Z,99.90
2018-10-01T19:34:10.803Z,99.90
2018-10-01T19:36:40.240Z,99.90
2018-10-01T19:39:09.885Z,99.90
2018-10-01T19:41:39.797Z,99.90
2018-10-01T19:44:09.591Z,99.90
2018-10-01T19:46:39.281Z,99.90
2018-10-01T19:49:08.912Z,99.90
2018-10-01T19:51:38.512Z,99.90
2018-10-01T19:54:08.239Z,99.90
2018-10-01T19:56:37.852Z,99.90
2018-10-01T19:59:07.755Z,99.90
2018-10-01T20:01:37.553Z,99.90
2018-10-01T20:04:07.200Z,99.90
2018-10-01T20:06:37.389Z,99.90
2018-10-01T20:09:09.109Z,99.90
2018-10-01T20:11:38.439Z,99.90
2018-10-01T20:14:08.094Z,99.90
2018-10-01T20:16:37.546Z,99.90
2018-10-01T20:19:07.431Z,99.90
2018-10-01T20:21:36.810Z,99.90
2018-10-01T20:24:06.109Z,99.90
2018-10-01T20:26:36.188Z,99.90
2018-10-01T20:29:05.600Z,99.90
2018-10-01T20:31:34.630Z,99.90
2018-10-01T20:34:04.282Z,99.90
2018-10-01T20:36:34.097Z,99.90
2018-10-01T20:39:03.842Z,99.90
2018-10-01T20:41:33.054Z,99.90
2018-10-01T20:44:02.997Z,99.90
2018-10-01T20:46:32.369Z,99.90
2018-10-01T20:49:01.709Z,99.90
2018-10-01T20:51:30.672Z,99.90
2018-10-01T20:54:00.105Z,99.90
2018-10-01T20:56:29.132Z,99.90
2018-10-01T20:58:58.390Z,99.90
2018-10-01T21:01:27.802Z,99.90
2018-10-01T21:03:56.880Z,99.90
2018-10-01T21:06:26.310Z,99.90
2018-10-01T21:08:55.843Z,99.90
2018-10-01T21:11:25.065Z,99.90
2018-10-01T21:13:54.904Z,99.90
2018-10-01T21:16:24.402Z,99.90
2018-10-01T21:18:53.484Z,99.90
2018-10-01T21:21:23.132Z,99.90
2018-10-01T21:23:52.104Z,99.90
2018-10-01T21:26:21.691Z,99.90
2018-10-01T21:28:51.027Z,99.90
2018-10-01T21:31:20.220Z,99.90
2018-10-01T21:33:49.546Z,99.90
2018-10-01T21:36:19.106Z,99.90
2018-10-01T21:38:48.412Z,99.90
2018-10-01T21:41:17.941Z,99.90
2018-10-01T21:43:47.051Z,99.90
2018-10-01T21:46:16.304Z,99.90
2018-10-01T21:48:46.148Z,99.90
2018-10-01T21:51:15.789Z,99.90
2018-10-01T21:53:45.188Z,99.90
2018-10-01T21:56:14.503Z,99.90
2018-10-01T21:58:43.979Z,99.90
2018-10-01T22:01:18.516Z,99.90
2018-10-01T22:03:48.295Z,99.90
2018-10-01T22:06:17.330Z,99.90
2018-10-01T22:08:47.208Z,99.90
2018-10-01T22:11:16.710Z,99.90
2018-10-01T22:13:46.873Z,99.90
2018-10-01T22:16:16.128Z,99.90
2018-10-01T22:18:45.470Z,99.90
2018-10-01T22:21:14.748Z,99.90
2018-10-01T22:23:43.972Z,99.90
2018-10-01T22:26:13.380Z,99.90
2018-10-01T22:28:42.807Z,99.90
2018-10-01T22:31:12.184Z,99.90
2018-10-01T22:33:41.590Z,99.90
2018-10-01T22:36:11.088Z,99.90
2018-10-01T22:38:40.580Z,99.90
2018-10-01T22:41:10.093Z,99.90
2018-10-01T22:43:39.546Z,99.90
2018-10-01T22:46:08.811Z,99.90
2018-10-01T22:48:38.277Z,99.90
2018-10-01T22:51:07.691Z,99.90
2018-10-01T22:53:37.021Z,99.90
2018-10-01T22:56:06.736Z,99.90
2018-10-01T22:58:35.865Z,99.90
2018-10-01T23:01:05.653Z,99.90
2018-10-01T23:03:35.022Z,99.90
2018-10-01T23:06:04.399Z,99.90
2018-10-01T23:08:33.572Z,99.90
2018-10-01T23:11:03.136Z,99.90
2018-10-01T23:13:32.344Z,99.90
2018-10-01T23:16:01.629Z,99.90
2018-10-01T23:18:30.801Z,99.90
2018-10-01T23:21:00.188Z,99.90
2018-10-01T23:23:29.520Z,99.90
2018-10-01T23:25:59.321Z,99.90
2018-10-01T23:28:28.745Z,99.90
2018-10-01T23:30:58.356Z,99.90
2018-10-01T23:33:27.607Z,99.90
2018-10-01T23:35:56.832Z,99.90
2018-10-01T23:38:26.435Z,99.90
2018-10-01T23:40:55.671Z,99.90
2018-10-01T23:43:25.140Z,99.90
2018-10-01T23:45:54.835Z,99.90
2018-10-01T23:48:24.232Z,99.90
2018-10-01T23:50:53.426Z,99.90
2018-10-01T23:53:22.986Z,99.90
2018-10-01T23:55:51.964Z,99.90
2018-10-01T23:58:21.521Z,99.90
